sensor_id;sensor_type;location;lat;lon;timestamp;P1;durP1;ratioP1;P2;durP2;ratioP2
5010;SDS011;2524;54.364;10.072;2022-08-19T00:01:18;7.70;;;7.00;;
5010;SDS011;2524;54.364;10.072;2022-08-19T00:03:44;7.93;;;6.83;;
5010;SDS011;2524;54.364;10.072;2022-08-19T00:06:09;7.30;;;6.60;;
5010;SDS011;2524;54.364;10.072;2022-08-19T00:08:35;9.33;;;8.20;;
5010;SDS011;2524;54.364;10.072;2022-08-19T00:11:01;10.63;;;7.60;;
5010;SDS011;2524;54.364;10.072;2022-08-19T00:13:27;7.40;;;6.30;;
5010;SDS011;2524;54.364;10.072;2022-08-19T00:15:53;7.20;;;6.47;;
5010;SDS011;2524;54.364;10.072;2022-08-19T00:18:20;7.80;;;7.10;;
5010;SDS011;2524;54.364;10.072;2022-08-19T00:20:45;10.07;;;7.03;;
5010;SDS011;2524;54.364;10.072;2022-08-19T00:23:11;11.80;;;7.40;;
5010;SDS011;2524;54.364;10.072;2022-08-19T00:25:37;9.47;;;6.80;;
5010;SDS011;2524;54.364;10.072;2022-08-19T00:28:03;5.90;;;5.40;;
5010;SDS011;2524;54.364;10.072;2022-08-19T00:30:29;7.77;;;7.00;;
5010;SDS011;2524;54.364;10.072;2022-08-19T00:32:55;8.90;;;7.27;;
5010;SDS011;2524;54.364;10.072;2022-08-19T00:35:21;7.80;;;6.13;;
5010;SDS011;2524;54.364;10.072;2022-08-19T00:37:48;8.20;;;6.10;;
5010;SDS011;2524;54.364;10.072;2022-08-19T00:40:14;6.43;;;5.53;;
5010;SDS011;2524;54.364;10.072;2022-08-19T00:42:41;8.30;;;7.50;;
5010;SDS011;2524;54.364;10.072;2022-08-19T00:45:09;14.40;;;6.60;;
5010;SDS011;2524;54.364;10.072;2022-08-19T00:47:39;7.13;;;6.40;;
5010;SDS011;2524;54.364;10.072;2022-08-19T00:50:05;6.27;;;5.70;;
5010;SDS011;2524;54.364;10.072;2022-08-19T00:52:35;6.90;;;6.20;;
5010;SDS011;2524;54.364;10.072;2022-08-19T00:55:05;8.20;;;7.00;;
5010;SDS011;2524;54.364;10.072;2022-08-19T00:57:37;8.00;;;6.40;;
5010;SDS011;2524;54.364;10.072;2022-08-19T01:00:09;7.07;;;6.37;;
5010;SDS011;2524;54.364;10.072;2022-08-19T01:02:38;7.60;;;6.30;;
5010;SDS011;2524;54.364;10.072;2022-08-19T01:05:06;7.57;;;6.57;;
5010;SDS011;2524;54.364;10.072;2022-08-19T01:07:34;9.63;;;7.47;;
5010;SDS011;2524;54.364;10.072;2022-08-19T01:10:03;9.80;;;7.03;;
5010;SDS011;2524;54.364;10.072;2022-08-19T01:12:30;15.03;;;9.70;;
5010;SDS011;2524;54.364;10.072;2022-08-19T01:14:56;9.83;;;7.80;;
5010;SDS011;2524;54.364;10.072;2022-08-19T01:17:23;11.40;;;9.60;;
5010;SDS011;2524;54.364;10.072;2022-08-19T01:19:49;8.57;;;7.57;;
5010;SDS011;2524;54.364;10.072;2022-08-19T01:24:53;14.20;;;9.20;;
5010;SDS011;2524;54.364;10.072;2022-08-19T01:27:18;11.63;;;8.70;;
5010;SDS011;2524;54.364;10.072;2022-08-19T01:29:44;13.03;;;9.20;;
5010;SDS011;2524;54.364;10.072;2022-08-19T01:32:12;9.90;;;7.83;;
5010;SDS011;2524;54.364;10.072;2022-08-19T01:34:40;10.00;;;7.77;;
5010;SDS011;2524;54.364;10.072;2022-08-19T01:37:10;13.43;;;8.50;;
5010;SDS011;2524;54.364;10.072;2022-08-19T01:39:37;10.40;;;8.73;;
5010;SDS011;2524;54.364;10.072;2022-08-19T01:42:05;17.10;;;11.20;;
5010;SDS011;2524;54.364;10.072;2022-08-19T01:44:32;14.13;;;9.10;;
5010;SDS011;2524;54.364;10.072;2022-08-19T01:46:58;16.20;;;11.17;;
5010;SDS011;2524;54.364;10.072;2022-08-19T01:49:24;13.10;;;8.73;;
5010;SDS011;2524;54.364;10.072;2022-08-19T01:51:51;9.77;;;8.10;;
5010;SDS011;2524;54.364;10.072;2022-08-19T01:54:19;8.90;;;8.00;;
5010;SDS011;2524;54.364;10.072;2022-08-19T01:56:45;10.13;;;8.63;;
5010;SDS011;2524;54.364;10.072;2022-08-19T01:59:12;9.50;;;8.00;;
5010;SDS011;2524;54.364;10.072;2022-08-19T02:01:41;11.10;;;8.53;;
5010;SDS011;2524;54.364;10.072;2022-08-19T02:04:07;12.27;;;8.10;;
5010;SDS011;2524;54.364;10.072;2022-08-19T02:06:32;15.50;;;8.37;;
5010;SDS011;2524;54.364;10.072;2022-08-19T02:08:58;19.23;;;9.00;;
5010;SDS011;2524;54.364;10.072;2022-08-19T02:11:28;15.63;;;8.73;;
5010;SDS011;2524;54.364;10.072;2022-08-19T02:13:58;13.10;;;8.20;;
5010;SDS011;2524;54.364;10.072;2022-08-19T02:16:26;11.97;;;9.17;;
5010;SDS011;2524;54.364;10.072;2022-08-19T02:18:52;13.50;;;8.33;;
5010;SDS011;2524;54.364;10.072;2022-08-19T02:21:19;11.00;;;9.37;;
5010;SDS011;2524;54.364;10.072;2022-08-19T02:23:47;8.97;;;7.60;;
5010;SDS011;2524;54.364;10.072;2022-08-19T02:26:13;11.13;;;8.67;;
5010;SDS011;2524;54.364;10.072;2022-08-19T02:28:39;9.80;;;7.60;;
5010;SDS011;2524;54.364;10.072;2022-08-19T02:31:13;13.57;;;8.83;;
5010;SDS011;2524;54.364;10.072;2022-08-19T02:33:40;11.67;;;7.70;;
5010;SDS011;2524;54.364;10.072;2022-08-19T02:36:06;9.37;;;7.40;;
5010;SDS011;2524;54.364;10.072;2022-08-19T02:38:33;11.83;;;8.43;;
5010;SDS011;2524;54.364;10.072;2022-08-19T02:41:01;8.87;;;7.50;;
5010;SDS011;2524;54.364;10.072;2022-08-19T02:43:37;10.77;;;7.90;;
5010;SDS011;2524;54.364;10.072;2022-08-19T02:48:51;10.73;;;9.03;;
5010;SDS011;2524;54.364;10.072;2022-08-19T02:51:18;12.13;;;8.57;;
5010;SDS011;2524;54.364;10.072;2022-08-19T02:53:47;12.57;;;8.30;;
5010;SDS011;2524;54.364;10.072;2022-08-19T02:56:13;13.80;;;10.30;;
5010;SDS011;2524;54.364;10.072;2022-08-19T02:58:39;13.07;;;9.30;;
5010;SDS011;2524;54.364;10.072;2022-08-19T03:01:05;15.70;;;9.73;;
5010;SDS011;2524;54.364;10.072;2022-08-19T03:03:31;14.10;;;9.83;;
5010;SDS011;2524;54.364;10.072;2022-08-19T03:06:04;12.93;;;9.03;;
5010;SDS011;2524;54.364;10.072;2022-08-19T03:08:36;10.47;;;7.60;;
5010;SDS011;2524;54.364;10.072;2022-08-19T03:11:02;16.03;;;9.33;;
5010;SDS011;2524;54.364;10.072;2022-08-19T03:13:28;15.37;;;10.70;;
5010;SDS011;2524;54.364;10.072;2022-08-19T03:15:54;16.77;;;9.87;;
5010;SDS011;2524;54.364;10.072;2022-08-19T03:18:20;13.20;;;9.27;;
5010;SDS011;2524;54.364;10.072;2022-08-19T03:20:47;13.70;;;9.03;;
5010;SDS011;2524;54.364;10.072;2022-08-19T03:23:15;12.70;;;9.60;;
5010;SDS011;2524;54.364;10.072;2022-08-19T03:25:42;9.93;;;8.23;;
5010;SDS011;2524;54.364;10.072;2022-08-19T03:28:10;10.00;;;8.53;;
5010;SDS011;2524;54.364;10.072;2022-08-19T03:30:38;11.17;;;7.77;;
5010;SDS011;2524;54.364;10.072;2022-08-19T03:33:06;11.07;;;8.03;;
5010;SDS011;2524;54.364;10.072;2022-08-19T03:35:32;11.73;;;7.37;;
5010;SDS011;2524;54.364;10.072;2022-08-19T03:38:01;11.13;;;7.80;;
5010;SDS011;2524;54.364;10.072;2022-08-19T03:40:28;11.50;;;8.00;;
5010;SDS011;2524;54.364;10.072;2022-08-19T03:42:55;10.77;;;7.80;;
5010;SDS011;2524;54.364;10.072;2022-08-19T03:45:21;11.50;;;8.47;;
5010;SDS011;2524;54.364;10.072;2022-08-19T03:47:47;11.03;;;9.07;;
5010;SDS011;2524;54.364;10.072;2022-08-19T03:50:13;13.30;;;8.90;;
5010;SDS011;2524;54.364;10.072;2022-08-19T03:52:39;10.10;;;8.50;;
5010;SDS011;2524;54.364;10.072;2022-08-19T03:55:05;8.70;;;7.50;;
5010;SDS011;2524;54.364;10.072;2022-08-19T03:57:31;10.23;;;7.60;;
5010;SDS011;2524;54.364;10.072;2022-08-19T03:59:58;9.10;;;7.57;;
5010;SDS011;2524;54.364;10.072;2022-08-19T04:02:24;7.90;;;7.10;;
5010;SDS011;2524;54.364;10.072;2022-08-19T04:04:49;9.47;;;7.93;;
5010;SDS011;2524;54.364;10.072;2022-08-19T04:07:18;9.07;;;7.50;;
5010;SDS011;2524;54.364;10.072;2022-08-19T04:09:46;9.90;;;7.40;;
5010;SDS011;2524;54.364;10.072;2022-08-19T04:12:12;9.10;;;6.37;;
5010;SDS011;2524;54.364;10.072;2022-08-19T04:14:39;8.17;;;7.37;;
5010;SDS011;2524;54.364;10.072;2022-08-19T04:17:06;11.80;;;8.47;;
5010;SDS011;2524;54.364;10.072;2022-08-19T04:19:33;10.97;;;7.50;;
5010;SDS011;2524;54.364;10.072;2022-08-19T04:21:59;8.00;;;7.10;;
5010;SDS011;2524;54.364;10.072;2022-08-19T04:24:25;8.30;;;7.10;;
5010;SDS011;2524;54.364;10.072;2022-08-19T04:26:51;7.77;;;6.97;;
5010;SDS011;2524;54.364;10.072;2022-08-19T04:29:21;11.03;;;6.93;;
5010;SDS011;2524;54.364;10.072;2022-08-19T04:31:50;7.90;;;7.10;;
5010;SDS011;2524;54.364;10.072;2022-08-19T04:34:18;8.13;;;7.30;;
5010;SDS011;2524;54.364;10.072;2022-08-19T04:36:47;6.70;;;6.00;;
5010;SDS011;2524;54.364;10.072;2022-08-19T04:39:16;10.37;;;7.20;;
5010;SDS011;2524;54.364;10.072;2022-08-19T04:41:44;9.30;;;7.83;;
5010;SDS011;2524;54.364;10.072;2022-08-19T04:44:29;7.33;;;6.57;;
5010;SDS011;2524;54.364;10.072;2022-08-19T04:46:56;7.67;;;6.87;;
5010;SDS011;2524;54.364;10.072;2022-08-19T04:49:22;8.40;;;7.00;;
5010;SDS011;2524;54.364;10.072;2022-08-19T04:51:49;8.03;;;6.70;;
5010;SDS011;2524;54.364;10.072;2022-08-19T04:54:17;8.13;;;7.13;;
5010;SDS011;2524;54.364;10.072;2022-08-19T04:56:46;7.90;;;7.10;;
5010;SDS011;2524;54.364;10.072;2022-08-19T04:59:12;9.93;;;6.90;;
5010;SDS011;2524;54.364;10.072;2022-08-19T05:01:37;9.53;;;8.10;;
5010;SDS011;2524;54.364;10.072;2022-08-19T05:04:04;9.43;;;7.40;;
5010;SDS011;2524;54.364;10.072;2022-08-19T05:06:31;7.93;;;7.13;;
5010;SDS011;2524;54.364;10.072;2022-08-19T05:08:58;10.43;;;7.80;;
5010;SDS011;2524;54.364;10.072;2022-08-19T05:11:26;7.50;;;6.80;;
5010;SDS011;2524;54.364;10.072;2022-08-19T05:13:54;9.33;;;7.70;;
5010;SDS011;2524;54.364;10.072;2022-08-19T05:16:21;11.93;;;7.93;;
5010;SDS011;2524;54.364;10.072;2022-08-19T05:18:48;8.87;;;7.47;;
5010;SDS011;2524;54.364;10.072;2022-08-19T05:21:33;10.77;;;7.90;;
5010;SDS011;2524;54.364;10.072;2022-08-19T05:24:19;12.30;;;8.13;;
5010;SDS011;2524;54.364;10.072;2022-08-19T05:26:49;9.70;;;7.70;;
5010;SDS011;2524;54.364;10.072;2022-08-19T05:29:16;13.80;;;9.13;;
5010;SDS011;2524;54.364;10.072;2022-08-19T05:31:45;9.00;;;7.83;;
5010;SDS011;2524;54.364;10.072;2022-08-19T05:34:14;10.33;;;9.13;;
5010;SDS011;2524;54.364;10.072;2022-08-19T05:36:41;16.33;;;10.10;;
5010;SDS011;2524;54.364;10.072;2022-08-19T05:39:08;11.23;;;8.93;;
5010;SDS011;2524;54.364;10.072;2022-08-19T05:41:40;8.80;;;7.80;;
5010;SDS011;2524;54.364;10.072;2022-08-19T05:44:07;15.10;;;8.80;;
5010;SDS011;2524;54.364;10.072;2022-08-19T05:46:34;11.27;;;9.23;;
5010;SDS011;2524;54.364;10.072;2022-08-19T05:49:00;25.20;;;14.63;;
5010;SDS011;2524;54.364;10.072;2022-08-19T05:51:26;20.30;;;11.30;;
5010;SDS011;2524;54.364;10.072;2022-08-19T05:53:52;12.70;;;9.40;;
5010;SDS011;2524;54.364;10.072;2022-08-19T05:56:17;12.67;;;9.00;;
5010;SDS011;2524;54.364;10.072;2022-08-19T05:58:43;9.60;;;8.37;;
5010;SDS011;2524;54.364;10.072;2022-08-19T06:01:11;9.70;;;8.50;;
5010;SDS011;2524;54.364;10.072;2022-08-19T06:03:39;8.60;;;7.17;;
5010;SDS011;2524;54.364;10.072;2022-08-19T06:06:12;12.87;;;8.10;;
5010;SDS011;2524;54.364;10.072;2022-08-19T06:08:39;9.83;;;8.83;;
5010;SDS011;2524;54.364;10.072;2022-08-19T06:13:51;11.00;;;8.00;;
5010;SDS011;2524;54.364;10.072;2022-08-19T06:16:19;18.77;;;10.50;;
5010;SDS011;2524;54.364;10.072;2022-08-19T06:18:47;11.53;;;9.30;;
5010;SDS011;2524;54.364;10.072;2022-08-19T06:21:25;9.30;;;8.40;;
5010;SDS011;2524;54.364;10.072;2022-08-19T06:23:52;11.60;;;8.50;;
5010;SDS011;2524;54.364;10.072;2022-08-19T06:26:19;10.33;;;8.17;;
5010;SDS011;2524;54.364;10.072;2022-08-19T06:28:46;10.00;;;8.23;;
5010;SDS011;2524;54.364;10.072;2022-08-19T06:31:18;12.80;;;9.00;;
5010;SDS011;2524;54.364;10.072;2022-08-19T06:33:46;14.30;;;10.00;;
5010;SDS011;2524;54.364;10.072;2022-08-19T06:36:23;10.37;;;8.60;;
5010;SDS011;2524;54.364;10.072;2022-08-19T06:38:58;9.60;;;8.70;;
5010;SDS011;2524;54.364;10.072;2022-08-19T06:41:37;16.03;;;11.00;;
5010;SDS011;2524;54.364;10.072;2022-08-19T06:44:04;15.23;;;8.93;;
5010;SDS011;2524;54.364;10.072;2022-08-19T06:46:30;14.07;;;9.47;;
5010;SDS011;2524;54.364;10.072;2022-08-19T06:48:55;10.90;;;8.50;;
5010;SDS011;2524;54.364;10.072;2022-08-19T06:51:21;9.57;;;8.57;;
5010;SDS011;2524;54.364;10.072;2022-08-19T06:53:48;9.83;;;8.83;;
5010;SDS011;2524;54.364;10.072;2022-08-19T06:56:17;10.70;;;8.63;;
5010;SDS011;2524;54.364;10.072;2022-08-19T06:58:45;10.87;;;8.50;;
5010;SDS011;2524;54.364;10.072;2022-08-19T07:01:12;14.33;;;11.33;;
5010;SDS011;2524;54.364;10.072;2022-08-19T07:03:38;11.23;;;9.60;;
5010;SDS011;2524;54.364;10.072;2022-08-19T07:06:07;10.30;;;8.77;;
5010;SDS011;2524;54.364;10.072;2022-08-19T07:08:35;10.17;;;9.13;;
5010;SDS011;2524;54.364;10.072;2022-08-19T07:11:05;10.40;;;9.30;;
5010;SDS011;2524;54.364;10.072;2022-08-19T07:13:34;11.33;;;10.20;;
5010;SDS011;2524;54.364;10.072;2022-08-19T07:16:05;10.10;;;8.47;;
5010;SDS011;2524;54.364;10.072;2022-08-19T07:18:33;9.37;;;8.37;;
5010;SDS011;2524;54.364;10.072;2022-08-19T07:21:06;11.27;;;9.27;;
5010;SDS011;2524;54.364;10.072;2022-08-19T07:23:47;15.10;;;10.37;;
5010;SDS011;2524;54.364;10.072;2022-08-19T07:26:15;14.07;;;10.03;;
5010;SDS011;2524;54.364;10.072;2022-08-19T07:28:47;12.33;;;9.40;;
5010;SDS011;2524;54.364;10.072;2022-08-19T07:31:14;13.50;;;9.80;;
5010;SDS011;2524;54.364;10.072;2022-08-19T07:33:46;13.70;;;11.00;;
5010;SDS011;2524;54.364;10.072;2022-08-19T07:36:14;13.90;;;10.50;;
5010;SDS011;2524;54.364;10.072;2022-08-19T07:38:50;14.97;;;11.73;;
5010;SDS011;2524;54.364;10.072;2022-08-19T07:41:18;11.90;;;10.67;;
5010;SDS011;2524;54.364;10.072;2022-08-19T07:43:46;19.77;;;13.07;;
5010;SDS011;2524;54.364;10.072;2022-08-19T07:46:13;13.60;;;11.13;;
5010;SDS011;2524;54.364;10.072;2022-08-19T07:48:40;14.80;;;12.17;;
5010;SDS011;2524;54.364;10.072;2022-08-19T07:51:07;15.23;;;11.50;;
5010;SDS011;2524;54.364;10.072;2022-08-19T07:53:35;13.00;;;11.03;;
5010;SDS011;2524;54.364;10.072;2022-08-19T07:56:01;15.10;;;12.60;;
5010;SDS011;2524;54.364;10.072;2022-08-19T07:58:30;12.07;;;10.20;;
5010;SDS011;2524;54.364;10.072;2022-08-19T08:00:57;12.03;;;10.83;;
5010;SDS011;2524;54.364;10.072;2022-08-19T08:03:23;12.83;;;10.23;;
5010;SDS011;2524;54.364;10.072;2022-08-19T08:06:09;11.80;;;10.17;;
5010;SDS011;2524;54.364;10.072;2022-08-19T08:08:55;11.17;;;10.07;;
5010;SDS011;2524;54.364;10.072;2022-08-19T08:11:36;13.17;;;11.23;;
5010;SDS011;2524;54.364;10.072;2022-08-19T08:14:06;16.80;;;12.33;;
5010;SDS011;2524;54.364;10.072;2022-08-19T08:16:37;16.97;;;11.47;;
5010;SDS011;2524;54.364;10.072;2022-08-19T08:19:04;11.43;;;10.33;;
5010;SDS011;2524;54.364;10.072;2022-08-19T08:21:31;13.70;;;11.30;;
5010;SDS011;2524;54.364;10.072;2022-08-19T08:23:57;13.63;;;11.20;;
5010;SDS011;2524;54.364;10.072;2022-08-19T08:26:23;15.13;;;12.50;;
5010;SDS011;2524;54.364;10.072;2022-08-19T08:28:50;14.60;;;12.73;;
5010;SDS011;2524;54.364;10.072;2022-08-19T08:31:16;13.90;;;12.00;;
5010;SDS011;2524;54.364;10.072;2022-08-19T08:33:44;10.67;;;9.57;;
5010;SDS011;2524;54.364;10.072;2022-08-19T08:36:11;10.57;;;9.57;;
5010;SDS011;2524;54.364;10.072;2022-08-19T08:38:38;11.50;;;10.30;;
5010;SDS011;2524;54.364;10.072;2022-08-19T08:41:13;10.60;;;9.50;;
5010;SDS011;2524;54.364;10.072;2022-08-19T08:43:48;15.13;;;12.40;;
5010;SDS011;2524;54.364;10.072;2022-08-19T08:46:24;11.53;;;10.33;;
5010;SDS011;2524;54.364;10.072;2022-08-19T08:52:03;15.23;;;12.40;;
5010;SDS011;2524;54.364;10.072;2022-08-19T08:54:36;16.40;;;13.67;;
5010;SDS011;2524;54.364;10.072;2022-08-19T08:57:07;13.17;;;11.80;;
5010;SDS011;2524;54.364;10.072;2022-08-19T08:59:40;24.40;;;18.63;;
5010;SDS011;2524;54.364;10.072;2022-08-19T09:02:08;19.20;;;15.90;;
5010;SDS011;2524;54.364;10.072;2022-08-19T09:04:35;17.17;;;13.57;;
5010;SDS011;2524;54.364;10.072;2022-08-19T09:09:50;20.90;;;15.40;;
5010;SDS011;2524;54.364;10.072;2022-08-19T09:12:26;21.43;;;18.00;;
5010;SDS011;2524;54.364;10.072;2022-08-19T09:15:05;29.60;;;21.10;;
5010;SDS011;2524;54.364;10.072;2022-08-19T09:17:34;25.93;;;17.30;;
5010;SDS011;2524;54.364;10.072;2022-08-19T09:22:36;17.37;;;13.80;;
5010;SDS011;2524;54.364;10.072;2022-08-19T09:25:03;22.07;;;17.50;;
5010;SDS011;2524;54.364;10.072;2022-08-19T09:27:30;17.23;;;14.43;;
5010;SDS011;2524;54.364;10.072;2022-08-19T09:29:56;19.10;;;15.67;;
5010;SDS011;2524;54.364;10.072;2022-08-19T09:32:22;13.90;;;12.20;;
5010;SDS011;2524;54.364;10.072;2022-08-19T09:34:49;18.10;;;13.87;;
5010;SDS011;2524;54.364;10.072;2022-08-19T09:37:14;15.50;;;12.63;;
5010;SDS011;2524;54.364;10.072;2022-08-19T09:39:43;19.40;;;15.20;;
5010;SDS011;2524;54.364;10.072;2022-08-19T09:42:09;18.30;;;13.40;;
5010;SDS011;2524;54.364;10.072;2022-08-19T09:44:40;27.70;;;19.53;;
5010;SDS011;2524;54.364;10.072;2022-08-19T09:47:06;26.03;;;17.47;;
5010;SDS011;2524;54.364;10.072;2022-08-19T09:49:33;26.40;;;17.70;;
5010;SDS011;2524;54.364;10.072;2022-08-19T09:51:59;15.67;;;13.50;;
5010;SDS011;2524;54.364;10.072;2022-08-19T09:54:25;22.23;;;14.70;;
5010;SDS011;2524;54.364;10.072;2022-08-19T09:56:51;14.47;;;11.97;;
5010;SDS011;2524;54.364;10.072;2022-08-19T09:59:20;15.50;;;12.50;;
5010;SDS011;2524;54.364;10.072;2022-08-19T10:01:46;13.40;;;12.00;;
5010;SDS011;2524;54.364;10.072;2022-08-19T10:04:12;15.13;;;12.00;;
5010;SDS011;2524;54.364;10.072;2022-08-19T10:06:38;13.20;;;11.27;;
5010;SDS011;2524;54.364;10.072;2022-08-19T10:09:05;21.70;;;16.60;;
5010;SDS011;2524;54.364;10.072;2022-08-19T10:11:35;21.80;;;16.03;;
5010;SDS011;2524;54.364;10.072;2022-08-19T10:14:04;13.27;;;11.20;;
5010;SDS011;2524;54.364;10.072;2022-08-19T10:16:33;16.07;;;13.53;;
5010;SDS011;2524;54.364;10.072;2022-08-19T10:19:00;15.70;;;13.20;;
5010;SDS011;2524;54.364;10.072;2022-08-19T10:21:28;11.97;;;10.13;;
5010;SDS011;2524;54.364;10.072;2022-08-19T10:23:58;11.20;;;9.33;;
5010;SDS011;2524;54.364;10.072;2022-08-19T10:26:28;10.27;;;9.00;;
5010;SDS011;2524;54.364;10.072;2022-08-19T10:28:56;10.73;;;9.63;;
5010;SDS011;2524;54.364;10.072;2022-08-19T10:31:25;10.53;;;9.43;;
5010;SDS011;2524;54.364;10.072;2022-08-19T10:33:55;17.60;;;13.60;;
5010;SDS011;2524;54.364;10.072;2022-08-19T10:36:24;13.60;;;10.57;;
5010;SDS011;2524;54.364;10.072;2022-08-19T10:39:01;15.20;;;11.40;;
5010;SDS011;2524;54.364;10.072;2022-08-19T10:41:30;10.10;;;9.10;;
5010;SDS011;2524;54.364;10.072;2022-08-19T10:43:58;9.73;;;8.73;;
5010;SDS011;2524;54.364;10.072;2022-08-19T10:46:27;15.93;;;12.37;;
5010;SDS011;2524;54.364;10.072;2022-08-19T10:48:56;16.73;;;12.73;;
5010;SDS011;2524;54.364;10.072;2022-08-19T10:51:21;12.63;;;11.33;;
5010;SDS011;2524;54.364;10.072;2022-08-19T10:54:06;15.70;;;10.80;;
5010;SDS011;2524;54.364;10.072;2022-08-19T10:56:32;17.03;;;12.70;;
5010;SDS011;2524;54.364;10.072;2022-08-19T10:59:16;10.43;;;9.27;;
5010;SDS011;2524;54.364;10.072;2022-08-19T11:01:46;15.60;;;12.13;;
5010;SDS011;2524;54.364;10.072;2022-08-19T11:04:12;15.93;;;13.43;;
5010;SDS011;2524;54.364;10.072;2022-08-19T11:06:38;12.43;;;11.13;;
5010;SDS011;2524;54.364;10.072;2022-08-19T11:09:07;13.10;;;10.50;;
5010;SDS011;2524;54.364;10.072;2022-08-19T11:11:33;11.57;;;10.37;;
5010;SDS011;2524;54.364;10.072;2022-08-19T11:14:05;11.60;;;9.97;;
5010;SDS011;2524;54.364;10.072;2022-08-19T11:16:31;13.57;;;10.50;;
5010;SDS011;2524;54.364;10.072;2022-08-19T11:18:57;17.90;;;12.50;;
5010;SDS011;2524;54.364;10.072;2022-08-19T11:21:29;14.57;;;11.60;;
5010;SDS011;2524;54.364;10.072;2022-08-19T11:23:59;18.93;;;13.10;;
5010;SDS011;2524;54.364;10.072;2022-08-19T11:26:27;17.13;;;12.30;;
5010;SDS011;2524;54.364;10.072;2022-08-19T11:28:54;13.20;;;11.53;;
5010;SDS011;2524;54.364;10.072;2022-08-19T11:31:22;12.53;;;10.60;;
5010;SDS011;2524;54.364;10.072;2022-08-19T11:33:49;14.47;;;11.53;;
5010;SDS011;2524;54.364;10.072;2022-08-19T11:36:16;12.90;;;10.77;;
5010;SDS011;2524;54.364;10.072;2022-08-19T11:38:42;21.97;;;15.27;;
5010;SDS011;2524;54.364;10.072;2022-08-19T11:41:09;13.03;;;10.40;;
5010;SDS011;2524;54.364;10.072;2022-08-19T11:43:35;14.17;;;9.47;;
5010;SDS011;2524;54.364;10.072;2022-08-19T11:46:05;9.97;;;8.73;;
5010;SDS011;2524;54.364;10.072;2022-08-19T11:48:31;11.17;;;9.90;;
5010;SDS011;2524;54.364;10.072;2022-08-19T11:50:57;11.90;;;9.17;;
5010;SDS011;2524;54.364;10.072;2022-08-19T11:53:23;16.63;;;12.43;;
5010;SDS011;2524;54.364;10.072;2022-08-19T11:55:49;17.50;;;11.67;;
5010;SDS011;2524;54.364;10.072;2022-08-19T11:58:20;19.30;;;13.27;;
5010;SDS011;2524;54.364;10.072;2022-08-19T12:00:46;16.17;;;12.43;;
5010;SDS011;2524;54.364;10.072;2022-08-19T12:03:12;14.50;;;11.07;;
5010;SDS011;2524;54.364;10.072;2022-08-19T12:05:39;27.70;;;16.40;;
5010;SDS011;2524;54.364;10.072;2022-08-19T12:08:05;19.13;;;13.53;;
5010;SDS011;2524;54.364;10.072;2022-08-19T12:10:32;14.90;;;11.57;;
5010;SDS011;2524;54.364;10.072;2022-08-19T12:12:58;12.43;;;10.00;;
5010;SDS011;2524;54.364;10.072;2022-08-19T12:15:24;14.37;;;10.20;;
5010;SDS011;2524;54.364;10.072;2022-08-19T12:17:52;31.17;;;18.50;;
5010;SDS011;2524;54.364;10.072;2022-08-19T12:20:21;18.10;;;12.87;;
5010;SDS011;2524;54.364;10.072;2022-08-19T12:22:47;16.33;;;13.03;;
5010;SDS011;2524;54.364;10.072;2022-08-19T12:25:13;20.33;;;13.67;;
5010;SDS011;2524;54.364;10.072;2022-08-19T12:27:39;13.47;;;11.10;;
5010;SDS011;2524;54.364;10.072;2022-08-19T12:30:05;14.20;;;10.70;;
5010;SDS011;2524;54.364;10.072;2022-08-19T12:32:32;17.50;;;11.37;;
5010;SDS011;2524;54.364;10.072;2022-08-19T12:34:58;25.47;;;15.20;;
5010;SDS011;2524;54.364;10.072;2022-08-19T12:37:24;21.73;;;14.40;;
5010;SDS011;2524;54.364;10.072;2022-08-19T12:39:49;16.17;;;11.83;;
5010;SDS011;2524;54.364;10.072;2022-08-19T12:42:15;21.90;;;14.43;;
5010;SDS011;2524;54.364;10.072;2022-08-19T12:44:42;18.23;;;13.37;;
5010;SDS011;2524;54.364;10.072;2022-08-19T12:47:09;14.73;;;11.30;;
5010;SDS011;2524;54.364;10.072;2022-08-19T12:49:37;15.30;;;11.33;;
5010;SDS011;2524;54.364;10.072;2022-08-19T12:52:04;11.30;;;9.30;;
5010;SDS011;2524;54.364;10.072;2022-08-19T12:54:31;18.63;;;13.47;;
5010;SDS011;2524;54.364;10.072;2022-08-19T12:56:57;28.03;;;16.30;;
5010;SDS011;2524;54.364;10.072;2022-08-19T12:59:24;16.97;;;13.20;;
5010;SDS011;2524;54.364;10.072;2022-08-19T13:01:50;13.30;;;10.80;;
5010;SDS011;2524;54.364;10.072;2022-08-19T13:04:16;11.80;;;8.90;;
5010;SDS011;2524;54.364;10.072;2022-08-19T13:06:42;10.97;;;8.90;;
5010;SDS011;2524;54.364;10.072;2022-08-19T13:09:08;10.07;;;9.07;;
5010;SDS011;2524;54.364;10.072;2022-08-19T13:11:34;10.90;;;8.90;;
5010;SDS011;2524;54.364;10.072;2022-08-19T13:14:00;8.07;;;6.80;;
5010;SDS011;2524;54.364;10.072;2022-08-19T13:16:27;13.23;;;11.00;;
5010;SDS011;2524;54.364;10.072;2022-08-19T13:18:53;10.30;;;9.07;;
5010;SDS011;2524;54.364;10.072;2022-08-19T13:21:21;8.50;;;7.70;;
5010;SDS011;2524;54.364;10.072;2022-08-19T13:23:48;13.37;;;10.53;;
5010;SDS011;2524;54.364;10.072;2022-08-19T13:26:15;9.73;;;8.73;;
5010;SDS011;2524;54.364;10.072;2022-08-19T13:28:42;8.83;;;7.70;;
5010;SDS011;2524;54.364;10.072;2022-08-19T13:31:27;7.90;;;7.10;;
5010;SDS011;2524;54.364;10.072;2022-08-19T13:34:13;8.57;;;7.77;;
5010;SDS011;2524;54.364;10.072;2022-08-19T13:36:41;8.17;;;7.47;;
5010;SDS011;2524;54.364;10.072;2022-08-19T13:39:07;9.23;;;8.30;;
5010;SDS011;2524;54.364;10.072;2022-08-19T13:41:34;8.37;;;7.53;;
5010;SDS011;2524;54.364;10.072;2022-08-19T13:44:01;7.03;;;6.37;;
5010;SDS011;2524;54.364;10.072;2022-08-19T13:46:27;7.93;;;7.17;;
5010;SDS011;2524;54.364;10.072;2022-08-19T13:48:54;9.20;;;8.40;;
5010;SDS011;2524;54.364;10.072;2022-08-19T13:51:21;14.30;;;11.30;;
5010;SDS011;2524;54.364;10.072;2022-08-19T13:53:47;13.53;;;11.03;;
5010;SDS011;2524;54.364;10.072;2022-08-19T13:56:14;18.20;;;12.97;;
5010;SDS011;2524;54.364;10.072;2022-08-19T13:58:44;14.60;;;11.30;;
5010;SDS011;2524;54.364;10.072;2022-08-19T14:01:11;10.83;;;9.70;;
5010;SDS011;2524;54.364;10.072;2022-08-19T14:03:37;15.33;;;12.00;;
5010;SDS011;2524;54.364;10.072;2022-08-19T14:06:03;13.33;;;10.53;;
5010;SDS011;2524;54.364;10.072;2022-08-19T14:08:29;15.10;;;12.07;;
5010;SDS011;2524;54.364;10.072;2022-08-19T14:10:57;13.43;;;11.67;;
5010;SDS011;2524;54.364;10.072;2022-08-19T14:13:23;11.80;;;10.30;;
5010;SDS011;2524;54.364;10.072;2022-08-19T14:15:49;11.97;;;10.30;;
5010;SDS011;2524;54.364;10.072;2022-08-19T14:18:16;12.07;;;9.60;;
5010;SDS011;2524;54.364;10.072;2022-08-19T14:20:42;10.67;;;9.23;;
5010;SDS011;2524;54.364;10.072;2022-08-19T14:23:08;8.97;;;8.10;;
5010;SDS011;2524;54.364;10.072;2022-08-19T14:25:34;9.37;;;8.47;;
5010;SDS011;2524;54.364;10.072;2022-08-19T14:28:00;8.07;;;7.27;;
5010;SDS011;2524;54.364;10.072;2022-08-19T14:30:29;9.03;;;8.10;;
5010;SDS011;2524;54.364;10.072;2022-08-19T14:32:57;8.40;;;7.60;;
5010;SDS011;2524;54.364;10.072;2022-08-19T14:35:24;8.10;;;7.40;;
5010;SDS011;2524;54.364;10.072;2022-08-19T14:37:51;7.73;;;7.03;;
5010;SDS011;2524;54.364;10.072;2022-08-19T14:40:21;9.73;;;8.83;;
5010;SDS011;2524;54.364;10.072;2022-08-19T14:42:51;10.43;;;8.40;;
5010;SDS011;2524;54.364;10.072;2022-08-19T14:45:24;10.37;;;9.30;;
5010;SDS011;2524;54.364;10.072;2022-08-19T14:47:51;8.60;;;7.73;;
5010;SDS011;2524;54.364;10.072;2022-08-19T14:50:17;8.40;;;7.43;;
5010;SDS011;2524;54.364;10.072;2022-08-19T14:52:45;8.40;;;7.60;;
5010;SDS011;2524;54.364;10.072;2022-08-19T14:55:12;9.17;;;8.30;;
5010;SDS011;2524;54.364;10.072;2022-08-19T14:57:40;11.03;;;9.03;;
5010;SDS011;2524;54.364;10.072;2022-08-19T15:00:06;8.80;;;8.00;;
5010;SDS011;2524;54.364;10.072;2022-08-19T15:02:36;8.20;;;7.50;;
5010;SDS011;2524;54.364;10.072;2022-08-19T15:05:02;12.57;;;11.20;;
5010;SDS011;2524;54.364;10.072;2022-08-19T15:07:28;11.50;;;9.30;;